createdAt,value
2022-11-29T00:01:16.696Z,51.25
2022-11-29T00:03:43.896Z,49.58
2022-11-29T00:06:19.273Z,44.33
2022-11-29T00:08:48.121Z,50.42
2022-11-29T00:11:40.035Z,57.17
2022-11-29T00:14:09.144Z,57.60
2022-11-29T00:16:37.436Z,57.10
2022-11-29T00:19:04.766Z,55.28
2022-11-29T00:21:31.855Z,61.97
2022-11-29T00:24:00.424Z,62.92
2022-11-29T00:26:29.520Z,57.35
2022-11-29T00:28:56.349Z,56.15
2022-11-29T00:31:27.642Z,63.83
2022-11-29T00:33:54.408Z,68.70
2022-11-29T00:36:22.640Z,64.82
2022-11-29T00:38:50.534Z,68.15
2022-11-29T00:41:17.684Z,67.53
2022-11-29T00:43:44.692Z,58.13
2022-11-29T00:46:13.395Z,57.40
2022-11-29T00:48:40.239Z,55.10
2022-11-29T00:51:07.861Z,56.08
2022-11-29T00:53:38.613Z,68.43
2022-11-29T00:56:06.763Z,65.70
2022-11-29T00:58:33.556Z,60.83
2022-11-29T01:01:00.452Z,62.97
2022-11-29T01:03:27.268Z,63.53
2022-11-29T01:06:04.995Z,62.00
2022-11-29T01:08:36.217Z,60.08
2022-11-29T01:11:13.756Z,62.15
2022-11-29T01:13:42.105Z,58.83
2022-11-29T01:16:09.585Z,61.10
2022-11-29T01:18:39.123Z,59.53
2022-11-29T01:21:12.057Z,56.97
2022-11-29T01:23:40.212Z,54.72
2022-11-29T01:26:12.104Z,53.90
2022-11-29T01:28:41.619Z,56.72
2022-11-29T01:31:22.876Z,50.97
2022-11-29T01:33:54.800Z,53.70
2022-11-29T01:36:23.165Z,57.45
2022-11-29T01:38:49.953Z,51.97
2022-11-29T01:41:23.453Z,48.80
2022-11-29T01:44:14.373Z,60.28
2022-11-29T01:46:45.134Z,47.22
2022-11-29T01:49:16.798Z,59.45
2022-11-29T01:51:49.481Z,61.63
2022-11-29T01:56:48.904Z,55.95
2022-11-29T01:59:22.065Z,53.17
2022-11-29T02:01:51.458Z,50.30
2022-11-29T02:04:19.752Z,59.25
2022-11-29T02:06:48.228Z,63.85
2022-11-29T02:09:20.256Z,58.13
2022-11-29T02:12:07.586Z,54.00
2022-11-29T02:14:47.935Z,58.42
2022-11-29T02:17:41.392Z,61.15
2022-11-29T02:23:05.246Z,61.63
2022-11-29T02:26:09.676Z,58.10
2022-11-29T02:29:17.027Z,57.17
2022-11-29T02:32:02.125Z,54.50
2022-11-29T02:34:59.656Z,49.83
2022-11-29T02:38:10.375Z,59.15
2022-11-29T02:41:09.434Z,54.72
2022-11-29T02:44:26.707Z,63.22
2022-11-29T02:47:38.064Z,61.97
2022-11-29T02:50:54.982Z,64.75
2022-11-29T02:53:53.107Z,63.85
2022-11-29T02:56:45.255Z,65.43
2022-11-29T02:59:43.638Z,58.58
2022-11-29T03:02:35.250Z,59.28
2022-11-29T03:05:33.778Z,63.97
2022-11-29T03:08:38.021Z,61.88
2022-11-29T03:11:32.888Z,63.63
2022-11-29T03:14:18.099Z,58.15
2022-11-29T03:16:53.795Z,65.97
2022-11-29T03:19:57.222Z,58.28
2022-11-29T03:22:48.546Z,51.35
2022-11-29T03:25:43.769Z,56.65
2022-11-29T03:28:38.824Z,58.75
2022-11-29T03:31:31.821Z,60.03
2022-11-29T03:34:21.453Z,61.28
2022-11-29T03:37:12.705Z,62.90
2022-11-29T03:39:57.564Z,69.35
2022-11-29T03:42:30.786Z,73.05
2022-11-29T03:45:23.671Z,57.97
2022-11-29T03:48:20.207Z,63.78
2022-11-29T03:51:04.126Z,64.63
2022-11-29T03:53:54.878Z,68.75
2022-11-29T03:56:34.644Z,66.88
2022-11-29T03:59:34.955Z,62.67
2022-11-29T04:02:32.507Z,54.00
2022-11-29T04:05:21.423Z,62.40
2022-11-29T04:08:04.192Z,65.45
2022-11-29T04:10:41.752Z,65.57
2022-11-29T04:13:41.684Z,66.25
2022-11-29T04:16:45.539Z,62.40
2022-11-29T04:19:36.404Z,60.55
2022-11-29T04:23:03.933Z,58.20
2022-11-29T04:26:33.570Z,57.40
2022-11-29T04:29:54.513Z,55.83
2022-11-29T04:32:51.594Z,54.08
2022-11-29T04:35:36.509Z,51.25
2022-11-29T04:38:21.728Z,56.55
2022-11-29T04:41:15.803Z,53.42
2022-11-29T04:43:54.317Z,53.60
2022-11-29T04:46:48.866Z,48.92
2022-11-29T04:49:48.208Z,49.20
2022-11-29T04:52:26.711Z,52.88
2022-11-29T04:55:19.430Z,49.47
2022-11-29T04:58:34.680Z,44.10
2022-11-29T05:01:30.665Z,45.28
2022-11-29T05:04:24.715Z,50.92
2022-11-29T05:07:11.804Z,54.63
2022-11-29T05:10:21.516Z,50.33
2022-11-29T05:13:26.405Z,49.22
2022-11-29T05:16:17.865Z,47.85
2022-11-29T05:19:21.672Z,48.78
2022-11-29T05:22:01.183Z,48.30
2022-11-29T05:25:04.394Z,43.08
2022-11-29T05:27:51.589Z,33.70
2022-11-29T05:30:24.830Z,44.97
2022-11-29T05:32:56.667Z,52.60
2022-11-29T05:36:08.407Z,48.30
2022-11-29T05:39:12.579Z,47.10
2022-11-29T05:42:19.672Z,40.65
2022-11-29T05:45:01.059Z,38.30
2022-11-29T05:47:41.330Z,40.85
2022-11-29T05:50:39.618Z,45.92
2022-11-29T05:53:30.897Z,43.67
2022-11-29T05:56:18.858Z,49.53
2022-11-29T05:58:56.869Z,47.92
2022-11-29T06:01:32.521Z,40.67
2022-11-29T06:04:14.971Z,47.30
2022-11-29T06:07:22.921Z,38.33
2022-11-29T06:10:02.017Z,48.33
2022-11-29T06:12:35.675Z,46.15
2022-11-29T06:15:51.230Z,42.40
2022-11-29T06:19:04.485Z,38.58
2022-11-29T06:22:05.711Z,32.25
2022-11-29T06:24:47.765Z,43.22
2022-11-29T06:27:54.733Z,43.05
2022-11-29T06:30:27.632Z,40.88
2022-11-29T06:33:08.613Z,44.00
2022-11-29T06:35:48.690Z,41.28
2022-11-29T06:38:30.297Z,41.05
2022-11-29T06:41:02.217Z,39.92
2022-11-29T06:43:30.291Z,32.20
2022-11-29T06:46:45.412Z,40.30
2022-11-29T06:49:28.563Z,44.47
2022-11-29T06:52:32.273Z,40.75
2022-11-29T06:58:34.491Z,38.53
2022-11-29T07:01:22.330Z,41.58
2022-11-29T07:04:35.356Z,33.00
2022-11-29T07:07:02.563Z,38.85
2022-11-29T07:09:34.832Z,35.95
2022-11-29T07:12:01.895Z,30.02
2022-11-29T07:14:29.105Z,36.03
2022-11-29T07:17:14.700Z,36.53
2022-11-29T07:20:18.064Z,35.53
2022-11-29T07:23:05.880Z,36.15
2022-11-29T07:26:03.044Z,40.08
2022-11-29T07:29:04.722Z,37.42
2022-11-29T07:32:14.560Z,50.55
2022-11-29T07:35:21.529Z,37.60
2022-11-29T07:38:13.940Z,32.95
2022-11-29T07:41:00.250Z,33.92
2022-11-29T07:43:45.755Z,37.33
2022-11-29T07:46:12.685Z,38.10
2022-11-29T07:48:39.525Z,37.13
2022-11-29T07:51:08.415Z,31.50
2022-11-29T07:53:42.105Z,33.28
2022-11-29T07:56:12.434Z,37.33
2022-11-29T07:58:39.687Z,36.95
2022-11-29T08:01:06.752Z,41.22
2022-11-29T08:03:35.445Z,33.70
2022-11-29T08:06:02.939Z,35.55
2022-11-29T08:08:29.775Z,36.45
2022-11-29T08:10:56.550Z,33.65
2022-11-29T08:13:23.496Z,30.75
2022-11-29T08:15:50.296Z,31.13
2022-11-29T08:18:17.685Z,32.58
2022-11-29T08:20:46.172Z,31.77
2022-11-29T08:23:14.424Z,29.83
2022-11-29T08:25:41.467Z,33.45
2022-11-29T08:28:09.826Z,31.80
2022-11-29T08:30:37.069Z,38.10
2022-11-29T08:33:04.587Z,32.92
2022-11-29T08:35:31.619Z,39.45
2022-11-29T08:37:58.420Z,36.53
2022-11-29T08:40:25.398Z,34.53
2022-11-29T08:42:52.170Z,31.30
2022-11-29T08:45:19.033Z,32.00
2022-11-29T08:47:45.872Z,32.00
2022-11-29T08:50:17.289Z,30.00
2022-11-29T08:53:06.537Z,28.45
2022-11-29T08:55:40.586Z,30.40
2022-11-29T08:58:10.978Z,31.63
2022-11-29T09:00:39.702Z,27.73
2022-11-29T09:03:26.481Z,32.05
2022-11-29T09:05:55.127Z,32.15
2022-11-29T09:08:22.622Z,33.85
2022-11-29T09:10:49.835Z,35.17
2022-11-29T09:13:18.617Z,36.90
2022-11-29T09:15:46.803Z,36.25
2022-11-29T09:18:13.648Z,34.30
2022-11-29T09:20:44.027Z,37.17
2022-11-29T09:23:12.054Z,36.45
2022-11-29T09:25:38.895Z,36.85
2022-11-29T09:28:05.780Z,39.15
2022-11-29T09:30:34.965Z,38.85
2022-11-29T09:33:05.139Z,34.95
2022-11-29T09:35:33.036Z,38.70
2022-11-29T09:37:59.888Z,33.22
2022-11-29T09:40:37.587Z,31.45
2022-11-29T09:43:34.058Z,38.40
2022-11-29T09:46:33.586Z,34.17
2022-11-29T09:49:09.261Z,28.80
2022-11-29T09:52:20.142Z,31.35
2022-11-29T09:55:36.942Z,26.00
2022-11-29T09:58:06.370Z,30.67
2022-11-29T10:01:01.797Z,30.85
2022-11-29T10:03:42.785Z,31.05
2022-11-29T10:06:23.493Z,28.83
2022-11-29T10:09:30.930Z,31.58
2022-11-29T10:12:21.709Z,31.67
2022-11-29T10:15:34.483Z,48.92
2022-11-29T10:18:30.584Z,41.72
2022-11-29T10:21:05.385Z,39.42
2022-11-29T10:23:54.206Z,41.42
2022-11-29T10:26:22.988Z,36.80
2022-11-29T10:28:49.828Z,38.47
2022-11-29T10:31:22.538Z,43.70
2022-11-29T10:33:50.635Z,42.35
2022-11-29T10:36:29.778Z,37.28
2022-11-29T10:39:03.482Z,38.63
2022-11-29T10:41:30.311Z,35.28
2022-11-29T10:43:59.204Z,37.83
2022-11-29T10:46:35.537Z,39.40
2022-11-29T10:49:14.562Z,34.67
2022-11-29T10:51:41.454Z,33.05
2022-11-29T10:54:40.085Z,34.05
2022-11-29T10:57:22.308Z,47.65
2022-11-29T11:00:08.624Z,59.13
2022-11-29T11:02:36.683Z,69.18
2022-11-29T11:05:12.959Z,58.85
2022-11-29T11:07:39.887Z,51.80
2022-11-29T11:10:26.731Z,47.05
2022-11-29T11:13:07.069Z,35.17
2022-11-29T11:15:34.400Z,38.35
2022-11-29T11:18:06.205Z,35.80
2022-11-29T11:20:39.243Z,35.53
2022-11-29T11:25:38.975Z,46.72
2022-11-29T11:28:21.654Z,40.05
2022-11-29T11:31:05.536Z,41.80
2022-11-29T11:33:35.525Z,36.97
2022-11-29T11:36:11.667Z,34.50
2022-11-29T11:38:56.877Z,40.58
2022-11-29T11:41:52.805Z,41.10
2022-11-29T11:44:53.625Z,40.40
2022-11-29T11:47:27.799Z,40.00
2022-11-29T11:50:02.061Z,36.85
2022-11-29T11:52:54.965Z,38.20
2022-11-29T11:55:21.625Z,36.70
2022-11-29T11:58:09.348Z,37.75
2022-11-29T12:01:05.631Z,39.42
2022-11-29T12:04:12.957Z,35.45
2022-11-29T12:06:58.439Z,36.75
2022-11-29T12:09:40.431Z,34.65
2022-11-29T12:12:32.733Z,35.25
2022-11-29T12:15:25.936Z,41.90
2022-11-29T12:18:38.010Z,36.67
2022-11-29T12:21:14.295Z,27.52
2022-11-29T12:23:53.734Z,26.98
2022-11-29T12:26:58.515Z,30.85
2022-11-29T12:29:31.674Z,27.80
2022-11-29T12:32:33.625Z,23.58
2022-11-29T12:35:41.713Z,21.92
2022-11-29T12:38:24.295Z,24.10
2022-11-29T12:41:50.943Z,14.93
2022-11-29T12:44:29.973Z,19.63
2022-11-29T12:50:07.757Z,18.33
2022-11-29T12:52:48.407Z,22.77
2022-11-29T12:55:49.129Z,22.35
2022-11-29T12:58:46.995Z,25.95
2022-11-29T13:01:35.379Z,25.15
2022-11-29T13:04:27.639Z,25.02
2022-11-29T13:07:03.516Z,25.67
2022-11-29T13:09:58.302Z,27.17
2022-11-29T13:12:42.253Z,28.13
2022-11-29T13:15:18.956Z,31.38
2022-11-29T13:18:21.517Z,30.52
2022-11-29T13:21:14.434Z,27.83
2022-11-29T13:24:15.016Z,22.88
2022-11-29T13:26:43.495Z,29.00
2022-11-29T13:29:17.864Z,26.90
2022-11-29T13:31:46.923Z,26.20
2022-11-29T13:34:32.888Z,29.38
2022-11-29T13:37:23.393Z,25.75
2022-11-29T13:40:04.890Z,24.95
2022-11-29T13:42:58.749Z,21.42
2022-11-29T13:45:42.363Z,23.20
2022-11-29T13:48:49.977Z,21.67
2022-11-29T13:51:33.119Z,27.80
2022-11-29T13:54:03.693Z,24.17
2022-11-29T13:56:46.299Z,25.15
2022-11-29T13:59:23.236Z,16.67
2022-11-29T14:01:53.972Z,17.58
2022-11-29T14:04:38.720Z,19.17
2022-11-29T14:07:13.369Z,17.33
2022-11-29T14:10:05.013Z,16.08
2022-11-29T14:12:42.163Z,16.05
2022-11-29T14:15:23.182Z,14.25
2022-11-29T14:18:03.983Z,14.70
2022-11-29T14:20:30.648Z,14.23
2022-11-29T14:23:07.574Z,13.90
2022-11-29T14:25:52.655Z,17.70
2022-11-29T14:28:22.570Z,15.90
2022-11-29T14:30:51.647Z,19.77
2022-11-29T14:33:46.556Z,16.77
2022-11-29T16:32:42.864Z,67.95
2022-11-29T16:43:44.475Z,55.45
2022-11-29T17:00:35.985Z,13.77
2022-11-29T17:03:02.765Z,16.98
2022-11-29T17:05:30.122Z,17.05
2022-11-29T17:07:56.956Z,17.25
2022-11-29T17:10:25.638Z,15.63
2022-11-29T17:12:52.737Z,16.35
2022-11-29T17:15:19.527Z,17.92
2022-11-29T17:17:46.355Z,19.80
2022-11-29T17:20:13.738Z,18.55
2022-11-29T17:22:41.186Z,21.60
2022-11-29T17:25:08.733Z,17.83
2022-11-29T17:27:35.996Z,19.45
2022-11-29T17:30:04.482Z,18.73
2022-11-29T17:32:33.725Z,31.38
2022-11-29T17:35:00.455Z,21.95
2022-11-29T17:37:31.662Z,22.67
2022-11-29T17:39:58.420Z,20.45
2022-11-29T17:42:25.224Z,23.08
2022-11-29T17:44:52.670Z,20.02
2022-11-29T17:47:19.456Z,16.67
2022-11-29T17:49:46.445Z,21.77
2022-11-29T17:52:13.389Z,22.90
2022-11-29T17:54:40.151Z,21.35
2022-11-29T17:57:06.923Z,21.63
2022-11-29T17:59:33.678Z,25.17
2022-11-29T18:02:02.007Z,26.48
2022-11-29T18:04:28.850Z,22.98
2022-11-29T18:06:55.806Z,28.10
2022-11-29T18:09:22.700Z,24.48
2022-11-29T18:11:50.293Z,22.58
2022-11-29T18:14:23.592Z,18.60
2022-11-29T18:16:51.222Z,27.63
2022-11-29T18:19:20.868Z,22.45
2022-11-29T18:21:48.949Z,23.17
2022-11-29T18:24:16.194Z,24.67
2022-11-29T18:26:44.012Z,24.05
2022-11-29T18:29:10.885Z,23.77
2022-11-29T18:31:41.679Z,23.00
2022-11-29T18:34:10.590Z,20.17
2022-11-29T18:36:43.877Z,25.85
2022-11-29T18:39:16.937Z,25.10
2022-11-29T18:44:15.466Z,20.95
2022-11-29T18:46:44.853Z,22.83
2022-11-29T18:49:17.952Z,21.48
2022-11-29T18:54:14.420Z,23.42
2022-11-29T18:56:43.351Z,23.67
2022-11-29T18:59:18.974Z,21.58
2022-11-29T19:01:47.854Z,22.38
2022-11-29T19:04:20.657Z,23.23
2022-11-29T19:06:48.079Z,25.00
2022-11-29T19:09:19.739Z,20.73
2022-11-29T19:11:46.571Z,24.95
2022-11-29T19:14:13.979Z,23.83
2022-11-29T19:16:44.647Z,28.50
2022-11-29T19:19:11.716Z,27.35
2022-11-29T19:21:39.991Z,31.33
2022-11-29T19:24:13.758Z,31.33
2022-11-29T19:26:42.955Z,29.88
2022-11-29T19:29:09.826Z,26.10
2022-11-29T19:31:39.139Z,34.72
2022-11-29T19:34:06.636Z,43.10
2022-11-29T19:36:33.827Z,30.98
2022-11-29T19:39:02.029Z,45.47
2022-11-29T19:41:34.233Z,34.50
2022-11-29T19:44:05.250Z,31.87
2022-11-29T19:46:39.219Z,29.23
2022-11-29T19:49:07.659Z,29.92
2022-11-29T19:51:35.294Z,29.80
2022-11-29T19:54:07.032Z,27.92
2022-11-29T19:56:33.986Z,26.92
2022-11-29T19:59:00.795Z,30.00
2022-11-29T20:01:37.755Z,27.33
2022-11-29T20:04:04.896Z,35.63
2022-11-29T20:06:31.711Z,26.85
2022-11-29T20:08:58.684Z,36.17
2022-11-29T20:11:26.180Z,31.85
2022-11-29T20:14:03.044Z,32.90
2022-11-29T20:16:31.015Z,27.90
2022-11-29T20:18:58.504Z,29.33
2022-11-29T20:21:29.476Z,21.48
2022-11-29T20:24:06.129Z,27.15
2022-11-29T20:26:36.022Z,24.10
2022-11-29T20:29:05.638Z,24.55
2022-11-29T20:31:34.093Z,31.05
2022-11-29T20:34:01.649Z,30.13
2022-11-29T20:36:49.544Z,23.85
2022-11-29T20:39:57.249Z,25.58
2022-11-29T20:43:03.620Z,25.88
2022-11-29T20:45:30.755Z,29.27
2022-11-29T20:48:18.126Z,24.48
2022-11-29T20:50:53.852Z,26.58
2022-11-29T20:53:31.868Z,30.48
2022-11-29T20:55:58.748Z,26.00
2022-11-29T20:58:26.467Z,27.33
2022-11-29T21:00:54.760Z,27.13
2022-11-29T21:03:23.554Z,28.70
2022-11-29T21:05:52.012Z,24.95
2022-11-29T21:08:22.954Z,29.33
2022-11-29T21:10:50.564Z,30.52
2022-11-29T21:13:20.195Z,22.30
2022-11-29T21:15:48.289Z,26.40
2022-11-29T21:18:29.628Z,27.30
2022-11-29T21:21:24.961Z,28.75
2022-11-29T21:24:18.091Z,28.52
2022-11-29T21:26:51.165Z,23.23
2022-11-29T21:31:48.297Z,33.10
2022-11-29T21:34:15.057Z,28.33
2022-11-29T21:36:42.247Z,29.27
2022-11-29T21:39:13.356Z,32.00
2022-11-29T21:41:40.150Z,28.20
2022-11-29T21:44:07.928Z,32.28
2022-11-29T21:46:35.536Z,36.45
2022-11-29T21:49:02.396Z,46.17
2022-11-29T21:51:29.160Z,40.85
2022-11-29T21:53:55.907Z,35.38
2022-11-29T21:56:22.763Z,31.98
2022-11-29T21:58:49.560Z,33.55
2022-11-29T22:01:19.524Z,33.95
2022-11-29T22:03:46.589Z,26.38
2022-11-29T22:06:20.656Z,34.30
2022-11-29T22:08:48.491Z,37.03
2022-11-29T22:11:31.084Z,37.05
2022-11-29T22:14:15.976Z,38.28
2022-11-29T22:17:09.132Z,34.22
2022-11-29T22:19:36.360Z,40.97
2022-11-29T22:22:06.458Z,32.95
2022-11-29T22:24:36.249Z,33.70
2022-11-29T22:27:03.170Z,35.50
2022-11-29T22:29:30.114Z,33.88
2022-11-29T22:31:57.449Z,44.50
2022-11-29T22:34:26.660Z,41.88
2022-11-29T22:36:53.567Z,38.05
2022-11-29T22:39:20.357Z,39.40
2022-11-29T22:41:53.580Z,37.22
2022-11-29T22:44:21.660Z,44.85
2022-11-29T22:46:48.568Z,37.67
2022-11-29T22:49:15.658Z,35.72
2022-11-29T22:51:42.750Z,36.65
2022-11-29T22:54:11.537Z,39.00
2022-11-29T22:56:40.789Z,43.50
2022-11-29T22:59:08.200Z,43.92
2022-11-29T23:01:38.948Z,37.55
2022-11-29T23:04:08.187Z,40.38
2022-11-29T23:06:41.043Z,42.28
2022-11-29T23:09:15.212Z,37.28
2022-11-29T23:11:44.594Z,39.33
2022-11-29T23:14:12.503Z,42.10
2022-11-29T23:16:39.563Z,43.13
2022-11-29T23:19:06.603Z,41.80
2022-11-29T23:21:38.075Z,37.45
2022-11-29T23:24:06.249Z,40.15
2022-11-29T23:26:43.934Z,38.33
2022-11-29T23:29:14.923Z,38.83
2022-11-29T23:31:42.519Z,35.65
2022-11-29T23:34:09.830Z,37.83
2022-11-29T23:36:36.721Z,41.35
2022-11-29T23:39:04.508Z,37.78
2022-11-29T23:41:31.324Z,39.03
2022-11-29T23:43:59.608Z,40.53
2022-11-29T23:46:26.624Z,37.97
2022-11-29T23:48:53.587Z,41.85
2022-11-29T23:51:20.594Z,35.40
2022-11-29T23:53:53.694Z,40.78
2022-11-29T23:58:48.919Z,44.00
